sensor_id;sensor_type;location;lat;lon;timestamp;pressure;altitude;pressure_sealevel;temperature;humidity
24962;BME280;12992;50.884;13.668;2022-09-20T00:00:23;97381.16;;;8.97;100.00
24962;BME280;12992;50.884;13.668;2022-09-20T00:02:49;97389.31;;;8.97;100.00
24962;BME280;12992;50.884;13.668;2022-09-20T00:05:14;97380.25;;;8.91;100.00
24962;BME280;12992;50.884;13.668;2022-09-20T00:07:43;97384.97;;;8.96;100.00
24962;BME280;12992;50.884;13.668;2022-09-20T00:10:09;97386.84;;;8.95;100.00
24962;BME280;12992;50.884;13.668;2022-09-20T00:12:34;97381.16;;;8.97;100.00
24962;BME280;12992;50.884;13.668;2022-09-20T00:14:59;97394.75;;;8.97;100.00
24962;BME280;12992;50.884;13.668;2022-09-20T00:17:25;97386.09;;;9.00;100.00
24962;BME280;12992;50.884;13.668;2022-09-20T00:19:50;97393.19;;;9.01;100.00
24962;BME280;12992;50.884;13.668;2022-09-20T00:22:15;97382.09;;;9.02;100.00
24962;BME280;12992;50.884;13.668;2022-09-20T00:24:41;97391.31;;;9.01;100.00
24962;BME280;12992;50.884;13.668;2022-09-20T00:27:06;97398.16;;;9.04;100.00
24962;BME280;12992;50.884;13.668;2022-09-20T00:29:31;97389.41;;;9.02;100.00
24962;BME280;12992;50.884;13.668;2022-09-20T00:31:57;97396.25;;;9.04;100.00
24962;BME280;12992;50.884;13.668;2022-09-20T00:34:22;97390.00;;;9.04;100.00
24962;BME280;12992;50.884;13.668;2022-09-20T00:37:06;97402.38;;;9.12;100.00
24962;BME280;12992;50.884;13.668;2022-09-20T00:39:31;97402.50;;;9.05;100.00
24962;BME280;12992;50.884;13.668;2022-09-20T00:41:57;97392.03;;;8.97;100.00
24962;BME280;12992;50.884;13.668;2022-09-20T00:47:13;97394.06;;;8.90;100.00
24962;BME280;12992;50.884;13.668;2022-09-20T00:49:40;97389.13;;;8.87;100.00
24962;BME280;12992;50.884;13.668;2022-09-20T00:52:07;97391.59;;;8.88;100.00
24962;BME280;12992;50.884;13.668;2022-09-20T00:54:32;97397.97;;;8.94;100.00
24962;BME280;12992;50.884;13.668;2022-09-20T00:56:58;97392.34;;;8.84;100.00
24962;BME280;12992;50.884;13.668;2022-09-20T00:59:26;97387.94;;;8.83;100.00
24962;BME280;12992;50.884;13.668;2022-09-20T01:02:05;97394.38;;;8.76;100.00
24962;BME280;12992;50.884;13.668;2022-09-20T01:04:34;97395.44;;;8.75;100.00
24962;BME280;12992;50.884;13.668;2022-09-20T01:07:02;97385.88;;;8.73;100.00
24962;BME280;12992;50.884;13.668;2022-09-20T01:09:29;97392.72;;;8.75;100.00
24962;BME280;12992;50.884;13.668;2022-09-20T01:11:56;97404.59;;;8.86;100.00
24962;BME280;12992;50.884;13.668;2022-09-20T01:14:24;97401.78;;;8.81;100.00
24962;BME280;12992;50.884;13.668;2022-09-20T01:16:53;97390.47;;;8.72;100.00
24962;BME280;12992;50.884;13.668;2022-09-20T01:19:28;97384.47;;;8.70;100.00
24962;BME280;12992;50.884;13.668;2022-09-20T01:21:59;97381.66;;;8.65;100.00
24962;BME280;12992;50.884;13.668;2022-09-20T01:24:39;97381.81;;;8.59;100.00
24962;BME280;12992;50.884;13.668;2022-09-20T01:30:08;97380.31;;;8.51;100.00
24962;BME280;12992;50.884;13.668;2022-09-20T01:32:48;97376.19;;;8.48;100.00
24962;BME280;12992;50.884;13.668;2022-09-20T01:35:18;97375.56;;;8.46;100.00
24962;BME280;12992;50.884;13.668;2022-09-20T01:38:11;97388.31;;;8.46;100.00
24962;BME280;12992;50.884;13.668;2022-09-20T01:41:03;97384.78;;;8.45;100.00
24962;BME280;12992;50.884;13.668;2022-09-20T01:43:46;97395.41;;;8.47;100.00
24962;BME280;12992;50.884;13.668;2022-09-20T01:46:20;97397.91;;;8.48;100.00
24962;BME280;12992;50.884;13.668;2022-09-20T01:48:50;97393.28;;;8.49;100.00
24962;BME280;12992;50.884;13.668;2022-09-20T01:51:58;97401.19;;;8.50;100.00
24962;BME280;12992;50.884;13.668;2022-09-20T01:57:23;97399.88;;;8.53;100.00
24962;BME280;12992;50.884;13.668;2022-09-20T02:00:07;97403.09;;;8.50;100.00
24962;BME280;12992;50.884;13.668;2022-09-20T02:11:05;97383.75;;;8.35;100.00
24962;BME280;12992;50.884;13.668;2022-09-20T02:30:06;97414.19;;;8.37;100.00
24962;BME280;12992;50.884;13.668;2022-09-20T02:35:24;97413.81;;;8.45;100.00
24962;BME280;12992;50.884;13.668;2022-09-20T02:37:59;97416.28;;;8.46;100.00
24962;BME280;12992;50.884;13.668;2022-09-20T02:40:59;97415.22;;;8.47;100.00
24962;BME280;12992;50.884;13.668;2022-09-20T02:43:57;97412.88;;;8.51;100.00
24962;BME280;12992;50.884;13.668;2022-09-20T02:46:34;97409.72;;;8.42;100.00
24962;BME280;12992;50.884;13.668;2022-09-20T02:49:12;97417.59;;;8.44;100.00
24962;BME280;12992;50.884;13.668;2022-09-20T02:51:48;97412.53;;;8.36;100.00
24962;BME280;12992;50.884;13.668;2022-09-20T02:54:30;97414.66;;;8.34;100.00
24962;BME280;12992;50.884;13.668;2022-09-20T02:57:13;97422.34;;;8.37;100.00
24962;BME280;12992;50.884;13.668;2022-09-20T02:59:48;97424.47;;;8.35;100.00
24962;BME280;12992;50.884;13.668;2022-09-20T03:02:39;97427.31;;;8.40;100.00
24962;BME280;12992;50.884;13.668;2022-09-20T03:05:45;97417.97;;;8.36;100.00
24962;BME280;12992;50.884;13.668;2022-09-20T03:08:36;97419.03;;;8.35;100.00
24962;BME280;12992;50.884;13.668;2022-09-20T03:14:13;97421.03;;;8.28;100.00
24962;BME280;12992;50.884;13.668;2022-09-20T03:17:40;97422.22;;;8.20;100.00
24962;BME280;12992;50.884;13.668;2022-09-20T03:19:47;97429.28;;;8.21;100.00
24962;BME280;12992;50.884;13.668;2022-09-20T03:22:41;97431.28;;;8.26;100.00
24962;BME280;12992;50.884;13.668;2022-09-20T03:25:45;97439.31;;;8.20;100.00
24962;BME280;12992;50.884;13.668;2022-09-20T03:28:23;97423.03;;;8.20;100.00
24962;BME280;12992;50.884;13.668;2022-09-20T03:34:08;97431.78;;;8.22;100.00
24962;BME280;12992;50.884;13.668;2022-09-20T03:36:54;97426.94;;;8.24;100.00
24962;BME280;12992;50.884;13.668;2022-09-20T03:39:44;97432.94;;;8.27;100.00
24962;BME280;12992;50.884;13.668;2022-09-20T03:42:19;97433.75;;;8.27;100.00
24962;BME280;12992;50.884;13.668;2022-09-20T03:44:58;97432.94;;;8.27;100.00
24962;BME280;12992;50.884;13.668;2022-09-20T03:54:08;97428.47;;;8.20;100.00
24962;BME280;12992;50.884;13.668;2022-09-20T03:59:38;97431.06;;;8.15;100.00
24962;BME280;12992;50.884;13.668;2022-09-20T04:02:35;97440.03;;;8.16;100.00
24962;BME280;12992;50.884;13.668;2022-09-20T04:05:15;97447.09;;;8.17;100.00
24962;BME280;12992;50.884;13.668;2022-09-20T04:10:36;97455.13;;;8.23;100.00
24962;BME280;12992;50.884;13.668;2022-09-20T04:13:16;97456.41;;;8.21;100.00
24962;BME280;12992;50.884;13.668;2022-09-20T04:16:06;97447.22;;;8.22;100.00
24962;BME280;12992;50.884;13.668;2022-09-20T04:21:27;97447.09;;;8.29;100.00
24962;BME280;12992;50.884;13.668;2022-09-20T04:26:38;97442.16;;;8.26;100.00
24962;BME280;12992;50.884;13.668;2022-09-20T04:31:44;97444.53;;;8.22;100.00
24962;BME280;12992;50.884;13.668;2022-09-20T04:34:24;97445.56;;;8.21;100.00
24962;BME280;12992;50.884;13.668;2022-09-20T04:37:29;97432.00;;;8.21;100.00
24962;BME280;12992;50.884;13.668;2022-09-20T04:40:36;97434.13;;;8.19;100.00
24962;BME280;12992;50.884;13.668;2022-09-20T04:43:15;97434.13;;;8.19;100.00
24962;BME280;12992;50.884;13.668;2022-09-20T04:46:09;97438.72;;;8.18;100.00
24962;BME280;12992;50.884;13.668;2022-09-20T04:51:50;97442.25;;;8.19;100.00
24962;BME280;12992;50.884;13.668;2022-09-20T04:54:49;97451.94;;;8.15;100.00
24962;BME280;12992;50.884;13.668;2022-09-20T05:00:21;97469.28;;;8.26;100.00
24962;BME280;12992;50.884;13.668;2022-09-20T05:05:49;97465.50;;;8.27;100.00
24962;BME280;12992;50.884;13.668;2022-09-20T05:11:29;97470.22;;;8.31;100.00
24962;BME280;12992;50.884;13.668;2022-09-20T05:14:16;97477.53;;;8.31;100.00
24962;BME280;12992;50.884;13.668;2022-09-20T05:20:16;97467.16;;;8.28;100.00
24962;BME280;12992;50.884;13.668;2022-09-20T05:23:10;97477.66;;;8.24;100.00
24962;BME280;12992;50.884;13.668;2022-09-20T05:28:51;97486.03;;;8.22;100.00
24962;BME280;12992;50.884;13.668;2022-09-20T05:31:35;97494.28;;;8.28;100.00
24962;BME280;12992;50.884;13.668;2022-09-20T05:34:23;97496.66;;;8.36;100.00
24962;BME280;12992;50.884;13.668;2022-09-20T05:36:57;97495.84;;;8.35;100.00
24962;BME280;12992;50.884;13.668;2022-09-20T05:39:37;97499.84;;;8.44;100.00
24962;BME280;12992;50.884;13.668;2022-09-20T05:42:30;97501.72;;;8.32;100.00
24962;BME280;12992;50.884;13.668;2022-09-20T05:45:16;97509.72;;;8.27;100.00
24962;BME280;12992;50.884;13.668;2022-09-20T05:47:55;97503.50;;;8.15;100.00
24962;BME280;12992;50.884;13.668;2022-09-20T05:53:49;97506.53;;;7.95;100.00
24962;BME280;12992;50.884;13.668;2022-09-20T05:56:32;97504.88;;;7.94;100.00
24962;BME280;12992;50.884;13.668;2022-09-20T06:04:58;97516.69;;;7.88;100.00
24962;BME280;12992;50.884;13.668;2022-09-20T06:07:41;97513.16;;;7.87;100.00
24962;BME280;12992;50.884;13.668;2022-09-20T06:13:17;97526.13;;;7.97;100.00
24962;BME280;12992;50.884;13.668;2022-09-20T06:15:56;97531.06;;;8.00;100.00
24962;BME280;12992;50.884;13.668;2022-09-20T06:18:35;97536.25;;;8.02;100.00
24962;BME280;12992;50.884;13.668;2022-09-20T06:21:31;97535.31;;;7.96;100.00
24962;BME280;12992;50.884;13.668;2022-09-20T06:23:59;97534.25;;;7.97;100.00
24962;BME280;12992;50.884;13.668;2022-09-20T06:26:29;97534.13;;;8.04;100.00
24962;BME280;12992;50.884;13.668;2022-09-20T06:29:02;97542.16;;;8.10;100.00
24962;BME280;12992;50.884;13.668;2022-09-20T06:31:28;97549.97;;;8.18;100.00
24962;BME280;12992;50.884;13.668;2022-09-20T06:33:57;97543.47;;;8.19;100.00
24962;BME280;12992;50.884;13.668;2022-09-20T06:36:27;97547.81;;;8.20;100.00
24962;BME280;12992;50.884;13.668;2022-09-20T06:42:23;97557.25;;;8.30;100.00
24962;BME280;12992;50.884;13.668;2022-09-20T06:44:50;97551.59;;;8.19;100.00
24962;BME280;12992;50.884;13.668;2022-09-20T06:47:15;97559.41;;;8.28;100.00
24962;BME280;12992;50.884;13.668;2022-09-20T06:49:41;97555.16;;;8.32;100.00
24962;BME280;12992;50.884;13.668;2022-09-20T06:52:13;97560.59;;;8.32;100.00
24962;BME280;12992;50.884;13.668;2022-09-20T06:54:41;97556.81;;;8.33;100.00
24962;BME280;12992;50.884;13.668;2022-09-20T06:57:12;97553.88;;;8.34;100.00
24962;BME280;12992;50.884;13.668;2022-09-20T06:59:39;97559.41;;;8.28;100.00
24962;BME280;12992;50.884;13.668;2022-09-20T07:02:05;97561.03;;;8.29;100.00
24962;BME280;12992;50.884;13.668;2022-09-20T07:04:30;97564.81;;;8.28;100.00
24962;BME280;12992;50.884;13.668;2022-09-20T07:07:03;97565.75;;;8.21;100.00
24962;BME280;12992;50.884;13.668;2022-09-20T07:09:29;97559.97;;;8.18;100.00
24962;BME280;12992;50.884;13.668;2022-09-20T07:11:55;97567.44;;;8.22;100.00
24962;BME280;12992;50.884;13.668;2022-09-20T07:14:24;97578.53;;;8.33;100.00
24962;BME280;12992;50.884;13.668;2022-09-20T07:16:50;97582.56;;;8.42;100.00
24962;BME280;12992;50.884;13.668;2022-09-20T07:19:15;97589.88;;;8.53;100.00
24962;BME280;12992;50.884;13.668;2022-09-20T07:21:41;97590.69;;;8.65;100.00
24962;BME280;12992;50.884;13.668;2022-09-20T07:24:06;97589.19;;;8.69;100.00
24962;BME280;12992;50.884;13.668;2022-09-20T07:26:31;97591.97;;;8.74;100.00
24962;BME280;12992;50.884;13.668;2022-09-20T07:28:58;97593.19;;;8.78;100.00
24962;BME280;12992;50.884;13.668;2022-09-20T07:31:25;97592.69;;;8.82;100.00
24962;BME280;12992;50.884;13.668;2022-09-20T07:33:51;97602.63;;;8.88;100.00
24962;BME280;12992;50.884;13.668;2022-09-20T07:36:17;97608.75;;;8.95;100.00
24962;BME280;12992;50.884;13.668;2022-09-20T07:38:46;97608.38;;;9.03;100.00
24962;BME280;12992;50.884;13.668;2022-09-20T07:41:12;97607.78;;;9.13;100.00
24962;BME280;12992;50.884;13.668;2022-09-20T07:43:38;97613.44;;;9.23;100.00
24962;BME280;12992;50.884;13.668;2022-09-20T07:46:04;97619.63;;;9.35;100.00
24962;BME280;12992;50.884;13.668;2022-09-20T07:48:31;97615.53;;;9.32;100.00
24962;BME280;12992;50.884;13.668;2022-09-20T07:51:00;97614.38;;;9.28;100.00
24962;BME280;12992;50.884;13.668;2022-09-20T07:53:27;97604.81;;;9.14;100.00
24962;BME280;12992;50.884;13.668;2022-09-20T07:58:33;97605.75;;;9.08;100.00
24962;BME280;12992;50.884;13.668;2022-09-20T08:01:09;97605.66;;;9.03;100.00
24962;BME280;12992;50.884;13.668;2022-09-20T08:03:35;97614.13;;;9.18;100.00
24962;BME280;12992;50.884;13.668;2022-09-20T08:06:04;97606.50;;;9.03;100.00
24962;BME280;12992;50.884;13.668;2022-09-20T08:08:37;97608.75;;;8.95;100.00
24962;BME280;12992;50.884;13.668;2022-09-20T08:11:06;97614.06;;;9.01;100.00
24962;BME280;12992;50.884;13.668;2022-09-20T08:13:36;97619.97;;;9.10;100.00
24962;BME280;12992;50.884;13.668;2022-09-20T08:16:03;97614.06;;;9.01;100.00
24962;BME280;12992;50.884;13.668;2022-09-20T08:18:28;97619.59;;;9.06;100.00
24962;BME280;12992;50.884;13.668;2022-09-20T08:20:54;97621.16;;;9.02;100.00
24962;BME280;12992;50.884;13.668;2022-09-20T08:23:19;97626.56;;;9.14;100.00
24962;BME280;12992;50.884;13.668;2022-09-20T08:25:44;97621.47;;;9.06;100.00
24962;BME280;12992;50.884;13.668;2022-09-20T08:28:12;97626.44;;;9.09;100.00
24962;BME280;12992;50.884;13.668;2022-09-20T08:30:37;97628.56;;;9.07;100.00
24962;BME280;12992;50.884;13.668;2022-09-20T08:33:03;97634.94;;;9.13;100.00
24962;BME280;12992;50.884;13.668;2022-09-20T08:35:29;97643.44;;;9.16;100.00
24962;BME280;12992;50.884;13.668;2022-09-20T08:37:54;97641.09;;;9.20;100.00
24962;BME280;12992;50.884;13.668;2022-09-20T08:40:21;97642.63;;;9.16;100.00
24962;BME280;12992;50.884;13.668;2022-09-20T08:42:48;97644.50;;;9.15;100.00
24962;BME280;12992;50.884;13.668;2022-09-20T08:45:16;97641.22;;;9.13;100.00
24962;BME280;12992;50.884;13.668;2022-09-20T08:47:47;97657.84;;;9.28;100.00
24962;BME280;12992;50.884;13.668;2022-09-20T08:50:13;97642.50;;;9.22;100.00
24962;BME280;12992;50.884;13.668;2022-09-20T08:52:43;97638.13;;;9.09;100.00
24962;BME280;12992;50.884;13.668;2022-09-20T08:57:41;97652.41;;;9.28;100.00
24962;BME280;12992;50.884;13.668;2022-09-20T09:00:14;97662.88;;;9.48;100.00
24962;BME280;12992;50.884;13.668;2022-09-20T09:02:41;97669.22;;;9.65;100.00
24962;BME280;12992;50.884;13.668;2022-09-20T09:05:26;97654.22;;;9.51;100.00
24962;BME280;12992;50.884;13.668;2022-09-20T09:07:53;97667.75;;;9.75;100.00
24962;BME280;12992;50.884;13.668;2022-09-20T09:10:19;97661.50;;;9.74;100.00
24962;BME280;12992;50.884;13.668;2022-09-20T09:12:45;97666.63;;;9.87;100.00
24962;BME280;12992;50.884;13.668;2022-09-20T09:15:32;97667.47;;;9.88;100.00
24962;BME280;12992;50.884;13.668;2022-09-20T09:17:59;97653.81;;;9.71;100.00
24962;BME280;12992;50.884;13.668;2022-09-20T09:20:24;97652.06;;;9.65;100.00
24962;BME280;12992;50.884;13.668;2022-09-20T09:23:06;97649.56;;;9.75;100.00
24962;BME280;12992;50.884;13.668;2022-09-20T09:25:38;97654.41;;;9.73;100.00
24962;BME280;12992;50.884;13.668;2022-09-20T09:30:37;97648.56;;;9.53;100.00
24962;BME280;12992;50.884;13.668;2022-09-20T09:33:29;97661.50;;;9.74;100.00
24962;BME280;12992;50.884;13.668;2022-09-20T09:36:07;97666.38;;;9.60;100.00
24962;BME280;12992;50.884;13.668;2022-09-20T09:38:37;97665.09;;;9.63;100.00
24962;BME280;12992;50.884;13.668;2022-09-20T09:41:27;97657.19;;;9.50;100.00
24962;BME280;12992;50.884;13.668;2022-09-20T09:44:05;97664.88;;;9.53;100.00
24962;BME280;12992;50.884;13.668;2022-09-20T09:46:34;97662.06;;;9.48;100.00
24962;BME280;12992;50.884;13.668;2022-09-20T09:52:11;97658.53;;;9.35;100.00
24962;BME280;12992;50.884;13.668;2022-09-20T09:54:45;97659.13;;;9.38;100.00
24962;BME280;12992;50.884;13.668;2022-09-20T10:00:23;97659.28;;;9.19;100.00
24962;BME280;12992;50.884;13.668;2022-09-20T10:13:55;97670.16;;;9.59;100.00
24962;BME280;12992;50.884;13.668;2022-09-20T10:16:38;97683.06;;;9.64;100.00
24962;BME280;12992;50.884;13.668;2022-09-20T10:19:44;97688.03;;;9.96;100.00
24962;BME280;12992;50.884;13.668;2022-09-20T10:22:31;97688.66;;;10.14;100.00
24962;BME280;12992;50.884;13.668;2022-09-20T10:25:18;97695.81;;;10.32;100.00
24962;BME280;12992;50.884;13.668;2022-09-20T10:30:19;97713.53;;;11.14;100.00
24962;BME280;12992;50.884;13.668;2022-09-20T10:32:57;97716.81;;;11.54;100.00
24962;BME280;12992;50.884;13.668;2022-09-20T10:48:04;97672.50;;;11.86;100.00
24962;BME280;12992;50.884;13.668;2022-09-20T10:53:40;97719.88;;;13.15;100.00
24962;BME280;12992;50.884;13.668;2022-09-20T10:56:15;97717.94;;;13.15;100.00
24962;BME280;12992;50.884;13.668;2022-09-20T10:59:03;97693.31;;;13.10;100.00
24962;BME280;12992;50.884;13.668;2022-09-20T11:01:59;97696.25;;;13.36;100.00
24962;BME280;12992;50.884;13.668;2022-09-20T11:07:31;97708.84;;;13.94;100.00
24962;BME280;12992;50.884;13.668;2022-09-20T11:10:12;97709.88;;;14.51;100.00
24962;BME280;12992;50.884;13.668;2022-09-20T11:12:42;97720.88;;;16.27;100.00
24962;BME280;12992;50.884;13.668;2022-09-20T11:15:23;97683.38;;;16.41;100.00
24962;BME280;12992;50.884;13.668;2022-09-20T11:17:59;97688.13;;;16.36;100.00
24962;BME280;12992;50.884;13.668;2022-09-20T11:20:28;97681.44;;;16.47;100.00
24962;BME280;12992;50.884;13.668;2022-09-20T11:23:05;97634.78;;;15.02;100.00
24962;BME280;12992;50.884;13.668;2022-09-20T11:25:56;97609.22;;;13.27;100.00
24962;BME280;12992;50.884;13.668;2022-09-20T11:28:35;97674.47;;;14.39;100.00
24962;BME280;12992;50.884;13.668;2022-09-20T11:31:38;97643.28;;;14.65;100.00
24962;BME280;12992;50.884;13.668;2022-09-20T11:34:24;97652.28;;;15.01;100.00
24962;BME280;12992;50.884;13.668;2022-09-20T11:37:00;97616.34;;;14.22;100.00
24962;BME280;12992;50.884;13.668;2022-09-20T11:39:38;97607.41;;;13.43;100.00
24962;BME280;12992;50.884;13.668;2022-09-20T11:42:05;97636.72;;;13.53;100.00
24962;BME280;12992;50.884;13.668;2022-09-20T11:44:31;97656.53;;;13.85;100.00
24962;BME280;12992;50.884;13.668;2022-09-20T11:47:04;97634.53;;;13.60;100.00
24962;BME280;12992;50.884;13.668;2022-09-20T11:49:52;97625.22;;;12.71;100.00
24962;BME280;12992;50.884;13.668;2022-09-20T11:52:52;97595.81;;;11.66;100.00
24962;BME280;12992;50.884;13.668;2022-09-20T11:55:41;97602.31;;;11.38;100.00
24962;BME280;12992;50.884;13.668;2022-09-20T11:58:14;97603.38;;;10.76;100.00
24962;BME280;12992;50.884;13.668;2022-09-20T12:00:47;97600.00;;;10.18;100.00
24962;BME280;12992;50.884;13.668;2022-09-20T12:03:35;97600.34;;;9.77;100.00
24962;BME280;12992;50.884;13.668;2022-09-20T12:06:07;97615.72;;;9.71;100.00
24962;BME280;12992;50.884;13.668;2022-09-20T12:08:41;97621.59;;;9.80;100.00
24962;BME280;12992;50.884;13.668;2022-09-20T12:11:12;97638.09;;;10.02;100.00
24962;BME280;12992;50.884;13.668;2022-09-20T12:13:40;97659.53;;;10.43;100.00
24962;BME280;12992;50.884;13.668;2022-09-20T12:19:05;97680.78;;;11.52;100.00
24962;BME280;12992;50.884;13.668;2022-09-20T12:24:31;97670.69;;;11.75;100.00
24962;BME280;12992;50.884;13.668;2022-09-20T12:32:44;97655.53;;;12.06;100.00
24962;BME280;12992;50.884;13.668;2022-09-20T12:35:50;97662.47;;;12.18;100.00
24962;BME280;12992;50.884;13.668;2022-09-20T12:38:31;97639.03;;;11.74;100.00
24962;BME280;12992;50.884;13.668;2022-09-20T12:41:13;97639.72;;;11.64;100.00
24962;BME280;12992;50.884;13.668;2022-09-20T12:43:49;97649.78;;;11.80;100.00
24962;BME280;12992;50.884;13.668;2022-09-20T12:46:20;97667.72;;;12.25;100.00
24962;BME280;12992;50.884;13.668;2022-09-20T12:48:46;97684.09;;;12.84;100.00
24962;BME280;12992;50.884;13.668;2022-09-20T12:54:02;97673.25;;;13.31;100.00
24962;BME280;12992;50.884;13.668;2022-09-20T12:56:30;97664.03;;;13.05;100.00
24962;BME280;12992;50.884;13.668;2022-09-20T12:58:58;97660.19;;;12.69;100.00
24962;BME280;12992;50.884;13.668;2022-09-20T13:01:32;97639.63;;;11.32;100.00
24962;BME280;12992;50.884;13.668;2022-09-20T13:07:40;97598.00;;;10.42;100.00
24962;BME280;12992;50.884;13.668;2022-09-20T13:10:21;97618.44;;;10.45;100.00
24962;BME280;12992;50.884;13.668;2022-09-20T13:12:50;97623.13;;;10.49;100.00
24962;BME280;12992;50.884;13.668;2022-09-20T13:15:18;97653.88;;;11.00;100.00
24962;BME280;12992;50.884;13.668;2022-09-20T13:17:47;97676.63;;;11.67;100.00
24962;BME280;12992;50.884;13.668;2022-09-20T13:20:26;97680.16;;;12.11;100.00
24962;BME280;12992;50.884;13.668;2022-09-20T13:22:55;97687.34;;;12.49;100.00
24962;BME280;12992;50.884;13.668;2022-09-20T13:25:21;97700.31;;;12.96;100.00
24962;BME280;12992;50.884;13.668;2022-09-20T13:30:27;97683.00;;;13.17;100.00
24962;BME280;12992;50.884;13.668;2022-09-20T13:33:13;97680.63;;;13.26;100.00
24962;BME280;12992;50.884;13.668;2022-09-20T13:35:39;97701.94;;;13.76;100.00
24962;BME280;12992;50.884;13.668;2022-09-20T13:38:07;97679.53;;;13.84;100.00
24962;BME280;12992;50.884;13.668;2022-09-20T13:40:35;97688.38;;;14.07;100.00
24962;BME280;12992;50.884;13.668;2022-09-20T13:43:04;97672.22;;;14.05;100.00
24962;BME280;12992;50.884;13.668;2022-09-20T13:45:31;97653.41;;;13.56;100.00
24962;BME280;12992;50.884;13.668;2022-09-20T13:47:59;97661.75;;;13.87;100.00
24962;BME280;12992;50.884;13.668;2022-09-20T13:52:55;97641.91;;;13.54;100.00
24962;BME280;12992;50.884;13.668;2022-09-20T13:58:06;97625.13;;;12.93;100.00
24962;BME280;12992;50.884;13.668;2022-09-20T14:00:34;97609.78;;;12.50;100.00
24962;BME280;12992;50.884;13.668;2022-09-20T14:03:02;97611.66;;;12.17;100.00
24962;BME280;12992;50.884;13.668;2022-09-20T14:05:29;97632.56;;;12.29;100.00
24962;BME280;12992;50.884;13.668;2022-09-20T14:07:56;97636.94;;;12.30;100.00
24962;BME280;12992;50.884;13.668;2022-09-20T14:10:31;97644.69;;;12.43;100.00
24962;BME280;12992;50.884;13.668;2022-09-20T14:12:58;97646.38;;;12.49;100.00
24962;BME280;12992;50.884;13.668;2022-09-20T14:15:31;97632.09;;;12.37;100.00
24962;BME280;12992;50.884;13.668;2022-09-20T14:17:59;97631.97;;;12.27;100.00
24962;BME280;12992;50.884;13.668;2022-09-20T14:20:27;97627.41;;;12.05;100.00
24962;BME280;12992;50.884;13.668;2022-09-20T14:22:52;97627.03;;;11.97;100.00
24962;BME280;12992;50.884;13.668;2022-09-20T14:25:23;97645.69;;;12.05;100.00
24962;BME280;12992;50.884;13.668;2022-09-20T14:28:18;97653.16;;;12.14;100.00
24962;BME280;12992;50.884;13.668;2022-09-20T14:30:45;97648.09;;;12.01;100.00
24962;BME280;12992;50.884;13.668;2022-09-20T14:33:15;97633.00;;;11.72;100.00
24962;BME280;12992;50.884;13.668;2022-09-20T14:35:48;97643.28;;;11.64;100.00
24962;BME280;12992;50.884;13.668;2022-09-20T14:38:15;97632.91;;;11.40;100.00
24962;BME280;12992;50.884;13.668;2022-09-20T14:40:44;97645.19;;;11.42;100.00
24962;BME280;12992;50.884;13.668;2022-09-20T14:45:51;97675.41;;;11.57;100.00
24962;BME280;12992;50.884;13.668;2022-09-20T14:50:44;97628.66;;;10.88;100.00
24962;BME280;12992;50.884;13.668;2022-09-20T14:55:47;97631.94;;;10.23;100.00
24962;BME280;12992;50.884;13.668;2022-09-20T14:58:18;97631.72;;;9.96;100.00
24962;BME280;12992;50.884;13.668;2022-09-20T15:00:48;97631.97;;;9.66;100.00
24962;BME280;12992;50.884;13.668;2022-09-20T15:03:24;97640.19;;;9.43;100.00
24962;BME280;12992;50.884;13.668;2022-09-20T15:05:49;97650.53;;;9.29;100.00
24962;BME280;12992;50.884;13.668;2022-09-20T15:08:15;97661.03;;;9.25;100.00
24962;BME280;12992;50.884;13.668;2022-09-20T15:10:42;97663.53;;;9.15;100.00
24962;BME280;12992;50.884;13.668;2022-09-20T15:13:09;97678.66;;;9.11;100.00
24962;BME280;12992;50.884;13.668;2022-09-20T15:15:35;97689.38;;;9.18;100.00
24962;BME280;12992;50.884;13.668;2022-09-20T15:18:00;97683.38;;;9.16;100.00
24962;BME280;12992;50.884;13.668;2022-09-20T15:20:25;97686.56;;;9.13;100.00
24962;BME280;12992;50.884;13.668;2022-09-20T15:22:51;97694.34;;;9.09;100.00
24962;BME280;12992;50.884;13.668;2022-09-20T15:25:18;97697.06;;;9.09;100.00
24962;BME280;12992;50.884;13.668;2022-09-20T15:27:45;97699.19;;;9.07;100.00
24962;BME280;12992;50.884;13.668;2022-09-20T15:30:14;97696.97;;;9.04;100.00
24962;BME280;12992;50.884;13.668;2022-09-20T15:32:41;97698.03;;;9.03;100.00
24962;BME280;12992;50.884;13.668;2022-09-20T15:35:07;97688.81;;;8.80;100.00
24962;BME280;12992;50.884;13.668;2022-09-20T15:37:33;97694.97;;;8.88;100.00
24962;BME280;12992;50.884;13.668;2022-09-20T15:39:58;97693.78;;;8.84;100.00
24962;BME280;12992;50.884;13.668;2022-09-20T15:42:24;97699.22;;;8.84;100.00
24962;BME280;12992;50.884;13.668;2022-09-20T15:44:49;97703.59;;;8.85;100.00
24962;BME280;12992;50.884;13.668;2022-09-20T15:47:17;97707.84;;;8.92;100.00
24962;BME280;12992;50.884;13.668;2022-09-20T15:49:42;97706.31;;;8.85;100.00
24962;BME280;12992;50.884;13.668;2022-09-20T15:52:11;97705.47;;;8.84;100.00
24962;BME280;12992;50.884;13.668;2022-09-20T15:54:37;97708.66;;;8.81;100.00
24962;BME280;12992;50.884;13.668;2022-09-20T15:57:02;97702.38;;;8.69;100.00
24962;BME280;12992;50.884;13.668;2022-09-20T15:59:28;97704.72;;;8.65;100.00
24962;BME280;12992;50.884;13.668;2022-09-20T16:01:54;97708.28;;;8.66;100.00
24962;BME280;12992;50.884;13.668;2022-09-20T16:04:19;97704.13;;;8.51;100.00
24962;BME280;12992;50.884;13.668;2022-09-20T16:06:47;97698.75;;;8.33;100.00
24962;BME280;12992;50.884;13.668;2022-09-20T16:09:13;97695.78;;;8.23;100.00
24962;BME280;12992;50.884;13.668;2022-09-20T16:11:39;97709.22;;;8.30;100.00
24962;BME280;12992;50.884;13.668;2022-09-20T16:14:05;97707.94;;;8.32;100.00
24962;BME280;12992;50.884;13.668;2022-09-20T16:16:31;97703.09;;;8.22;100.00